North Bend, WA (98045)

8:59 AM PST on February 12, 2016 (GMT -0800)
Mt Si Road | | Change Station
CLOSE
Current Station
Personal Weather Station
Location: North Bend, WA
Elevation: 545 ft
Nearby Weather Stations

Elev 545 ft 47.48 °N, 121.75 °W | Updated 15 seconds ago

Overcast
Overcast
50.4 °F
Feels Like 50.4 °F
N
10.0
Wind Variable Wind from NE
Gusts 10.0 mph

Today
High -- | Low -- °F
--% Chance of Precip.
Yesterday
High -- | Low -- °F
Precip. -- in
Pressure 30.07 in
Visibility 10.0 miles
Clouds Overcast 6000 ft
Dew Point 47 °F
Humidity 88%
Rainfall 0.46 in
Snow Depth Not available.
7:17 AM 5:25 PM
Waxing Crescent, 22% visible
METAR KRNT 121653Z 16005KT 10SM OVC060 12/09 A3005 RMK AO2 SLP181 T01220094
Pressure 30.07 in
Visibility 10.0 miles
Clouds Overcast 6000 ft
Dew Point 47 °F
Humidity 88%
Rainfall 0.46 in
Snow Depth Not available.
7:17 AM 5:25 PM
Waxing Crescent, 22% visible
METAR KRNT 121653Z 16005KT 10SM OVC060 12/09 A3005 RMK AO2 SLP181 T01220094

10-Day Weather Forecast

Almanac

Astronomy

Feb. 12, 2016 Rise Set
Actual Time
Civil Twilight
Nautical Twilight
Astronomical Twilight
Moon
Length of Visible Light
Length of Day
Tomorrow will be .
, % of the Moon is Illuminated

Today's Extremes

State Highs State Lows

Community

WunderPhotos

Upload Photos

1,892,354 photos uploaded!

WunderBlog® & News

Nearby

Air Quality

  Air Quality AQ Index Pollutant
Not available.

Snow Depth

Station Depth Elevation

Earthquake Activity

City Distance Mag. Time & Date
Minimum magnitude displayed is 2.5.

Coastal Water Temperatures

Place Temperature

Stations

Nearby Weather Stations

Station Location Temp. Windchill Dew Point Humidity Wind Precip. Elev Updated Type
                   

Watches & Warnings

There are currently no watches in effect.